SPHI/CIX METAR and TAF weather

Enter ICAO airport designator
Station Type Date Time Source
SPHI METAR 2022/01/23 12:00 UTC NOAA

SPHI 231200Z 18010KT 9999 FEW010 BKN080 20/17 Q1012 RMK BIRD HAZARD RWY 19/01 TN19.5 PP000


Station Type Date Time Source
SPHI Decoded METAR 2022/01/23 12:00 UTC NOAA

Chiclayo, Peru (SPHI) 06-47S 079-50W 34M
Jan 23, 2022 - 07:00 AM EST / 2022.01.23 1200 UTC
Wind: from the S (180 degrees) at 12 MPH (10 KT):0
Visibility: greater than 7 mile(s):0
Sky conditions: mostly cloudy
Temperature: 68 F (20 C)
Dew Point: 62 F (17 C)
Relative Humidity: 82%
Pressure (altimeter): 29.88 in. Hg (1012 hPa)
ob: SPHI 231200Z 18010KT 9999 FEW010 BKN080 20/17 Q1012 RMK BIRD HAZARD RWY 19/01 TN19.5 PP000
cycle: 12

Station Type Date Time Source
SPHI TAF 2022/01/23 12:33 UTC NOAA

TAF SPHI 231100Z 2312/2412 17007KT 9999 FEW010 OVC070 TX28/2319Z TN18/2411Z
TEMPO 2312/2314 4000 BR BKN004
BECMG 2316/2318 22016KT CAVOK

Example: see airport list